createdAt,value
2023-04-03T00:01:17.235Z,99.90
2023-04-03T00:04:05.712Z,99.90
2023-04-03T00:06:53.391Z,99.90
2023-04-03T00:09:41.242Z,99.90
2023-04-03T00:12:28.898Z,99.90
2023-04-03T00:15:16.826Z,99.90
2023-04-03T00:18:04.854Z,99.90
2023-04-03T00:20:52.579Z,99.90
2023-04-03T00:23:40.291Z,99.90
2023-04-03T00:26:27.829Z,99.90
2023-04-03T00:29:15.620Z,99.90
2023-04-03T00:32:03.504Z,99.90
2023-04-03T00:34:51.131Z,99.90
2023-04-03T00:37:38.998Z,99.90
2023-04-03T00:40:27.923Z,99.90
2023-04-03T00:43:27.419Z,99.90
2023-04-03T00:46:15.211Z,99.90
2023-04-03T00:49:03.088Z,99.90
2023-04-03T00:51:50.887Z,99.90
2023-04-03T00:54:39.476Z,99.90
2023-04-03T00:57:28.749Z,99.90
2023-04-03T01:00:20.162Z,99.90
2023-04-03T01:03:07.932Z,99.90
2023-04-03T01:05:56.046Z,99.90
2023-04-03T01:08:44.103Z,99.90
2023-04-03T01:11:31.869Z,99.90
2023-04-03T01:14:19.784Z,99.90
2023-04-03T01:17:31.500Z,99.90
2023-04-03T01:20:37.864Z,99.90
2023-04-03T01:23:33.886Z,99.90
2023-04-03T01:26:22.362Z,99.90
2023-04-03T01:29:10.169Z,99.90
2023-04-03T01:32:00.959Z,99.90
2023-04-03T01:34:48.523Z,99.90
2023-04-03T01:37:36.151Z,99.90
2023-04-03T01:40:23.670Z,99.90
2023-04-03T01:43:11.463Z,99.90
2023-04-03T01:45:59.228Z,99.90
2023-04-03T01:48:47.305Z,99.90
2023-04-03T01:51:35.044Z,99.90
2023-04-03T01:54:22.515Z,99.90
2023-04-03T01:57:10.097Z,99.90
2023-04-03T01:59:57.826Z,99.90
2023-04-03T02:02:45.407Z,99.90
2023-04-03T02:05:33.103Z,99.90
2023-04-03T02:08:23.863Z,99.90
2023-04-03T02:11:11.352Z,99.90
2023-04-03T02:13:58.893Z,99.90
2023-04-03T02:16:46.534Z,99.90
2023-04-03T02:19:34.350Z,99.90
2023-04-03T02:22:24.987Z,99.90
2023-04-03T02:25:13.561Z,99.90
2023-04-03T02:28:01.219Z,99.90
2023-04-03T02:30:48.805Z,99.90
2023-04-03T02:33:39.910Z,99.90
2023-04-03T02:36:27.905Z,99.90
2023-04-03T02:39:15.821Z,99.90
2023-04-03T02:42:05.509Z,99.90
2023-04-03T02:44:53.222Z,99.90
2023-04-03T02:47:40.886Z,99.90
2023-04-03T02:50:28.445Z,99.90
2023-04-03T02:53:16.335Z,99.90
2023-04-03T02:56:04.004Z,99.90
2023-04-03T02:58:51.609Z,99.90
2023-04-03T03:01:40.873Z,99.90
2023-04-03T03:04:28.483Z,99.90
2023-04-03T03:07:16.075Z,99.90
2023-04-03T03:10:03.798Z,99.90
2023-04-03T03:12:51.806Z,99.90
2023-04-03T03:15:39.279Z,99.90
2023-04-03T03:18:27.056Z,99.90
2023-04-03T03:21:14.974Z,99.90
2023-04-03T03:24:02.659Z,99.90
2023-04-03T03:26:50.749Z,99.90
2023-04-03T03:29:38.351Z,99.90
2023-04-03T03:32:29.377Z,99.90
2023-04-03T03:35:17.213Z,99.90
2023-04-03T03:38:04.989Z,99.90
2023-04-03T03:40:53.301Z,99.90
2023-04-03T03:43:41.203Z,99.90
2023-04-03T03:46:28.878Z,99.90
2023-04-03T03:49:16.528Z,99.90
2023-04-03T03:52:04.378Z,99.90
2023-04-03T03:54:55.147Z,99.90
2023-04-03T03:57:42.831Z,99.90
2023-04-03T04:00:30.674Z,99.90
2023-04-03T04:03:18.469Z,99.90
2023-04-03T04:06:06.288Z,99.90
2023-04-03T04:08:53.989Z,99.90
2023-04-03T04:11:41.987Z,99.90
2023-04-03T04:14:30.028Z,99.90
2023-04-03T04:17:18.079Z,99.90
2023-04-03T04:20:06.133Z,99.90
2023-04-03T04:22:53.663Z,99.90
2023-04-03T04:25:41.474Z,99.90
2023-04-03T04:28:29.207Z,99.90
2023-04-03T04:31:16.760Z,99.90
2023-04-03T04:34:04.286Z,99.90
2023-04-03T04:36:51.920Z,99.90
2023-04-03T04:39:39.548Z,99.90
2023-04-03T04:42:27.240Z,99.90
2023-04-03T04:45:16.012Z,99.90
2023-04-03T04:48:03.971Z,99.90
2023-04-03T04:50:51.557Z,99.90
2023-04-03T04:53:39.362Z,99.90
2023-04-03T04:56:27.252Z,99.90
2023-04-03T04:59:14.692Z,99.90
2023-04-03T05:02:02.428Z,99.90
2023-04-03T05:04:51.398Z,99.90
2023-04-03T05:07:39.128Z,99.90
2023-04-03T05:10:26.740Z,99.90
2023-04-03T05:13:14.966Z,99.90
2023-04-03T05:16:03.046Z,99.90
2023-04-03T05:18:50.789Z,99.90
2023-04-03T05:21:38.328Z,99.90
2023-04-03T05:24:27.192Z,99.90
2023-04-03T05:27:14.996Z,99.90
2023-04-03T05:30:03.163Z,99.90
2023-04-03T05:32:50.818Z,99.90
2023-04-03T05:35:42.823Z,99.90
2023-04-03T05:38:33.243Z,99.90
2023-04-03T05:41:22.112Z,99.90
2023-04-03T05:44:10.325Z,99.90
2023-04-03T05:47:10.795Z,99.90
2023-04-03T05:50:01.820Z,99.90
2023-04-03T05:52:54.743Z,99.90
2023-04-03T05:55:45.923Z,99.90
2023-04-03T05:58:36.237Z,99.90
2023-04-03T06:01:24.637Z,99.90
2023-04-03T06:04:12.539Z,99.90
2023-04-03T06:07:17.350Z,99.90
2023-04-03T06:10:08.985Z,99.90
2023-04-03T06:12:57.169Z,99.90
2023-04-03T06:15:45.528Z,99.90
2023-04-03T06:18:53.101Z,99.90
2023-04-03T06:21:41.330Z,99.90
2023-04-03T06:24:33.837Z,99.90
2023-04-03T06:27:22.041Z,99.90
2023-04-03T06:30:11.724Z,99.90
2023-04-03T06:33:06.068Z,99.90
2023-04-03T06:36:02.410Z,99.90
2023-04-03T06:38:50.452Z,99.90
2023-04-03T06:41:38.185Z,99.90
2023-04-03T06:44:25.906Z,99.90
2023-04-03T06:47:16.164Z,99.90
2023-04-03T06:50:04.092Z,99.90
2023-04-03T06:52:51.834Z,99.90
2023-04-03T06:55:40.294Z,97.80
2023-04-03T06:58:28.634Z,96.90
2023-04-03T07:01:17.811Z,94.80
2023-04-03T07:04:08.210Z,94.20
2023-04-03T07:06:57.304Z,94.10
2023-04-03T07:09:45.395Z,93.40
2023-04-03T07:12:38.666Z,93.20
2023-04-03T07:15:31.754Z,92.40
2023-04-03T07:18:25.632Z,92.60
2023-04-03T07:21:27.946Z,91.00
2023-04-03T07:24:28.929Z,91.50
2023-04-03T07:27:17.107Z,91.70
2023-04-03T07:30:05.739Z,92.80
2023-04-03T07:32:56.432Z,93.30
2023-04-03T07:35:47.809Z,91.80
2023-04-03T07:38:41.009Z,92.50
2023-04-03T07:41:30.080Z,90.50
2023-04-03T07:44:20.263Z,86.80
2023-04-03T07:47:07.956Z,90.20
2023-04-03T07:49:55.521Z,90.40
2023-04-03T07:52:43.521Z,89.80
2023-04-03T07:55:33.695Z,89.60
2023-04-03T07:58:25.925Z,83.80
2023-04-03T08:01:13.813Z,82.10
2023-04-03T08:04:01.730Z,84.30
2023-04-03T08:06:52.044Z,82.90
2023-04-03T08:09:42.493Z,82.50
2023-04-03T08:12:46.832Z,82.80
2023-04-03T08:15:40.669Z,81.40
2023-04-03T08:18:35.355Z,74.80
2023-04-03T08:21:23.968Z,77.30
2023-04-03T08:24:12.513Z,78.10
2023-04-03T08:27:01.810Z,76.30
2023-04-03T08:29:52.013Z,77.80
2023-04-03T08:32:43.253Z,74.50
2023-04-03T08:35:31.290Z,72.70
2023-04-03T08:38:22.067Z,68.70
2023-04-03T08:41:23.018Z,66.60
2023-04-03T08:44:50.450Z,65.90
2023-04-03T08:47:55.371Z,64.90
2023-04-03T08:50:54.991Z,65.40
2023-04-03T08:54:04.860Z,59.90
2023-04-03T08:56:56.490Z,58.70
2023-04-03T08:59:50.783Z,60.70
2023-04-03T09:02:48.802Z,59.70
2023-04-03T09:06:23.251Z,56.00
2023-04-03T09:09:42.886Z,53.30
2023-04-03T09:12:45.938Z,54.30
2023-04-03T09:15:39.041Z,55.60
2023-04-03T09:18:43.974Z,53.30
2023-04-03T09:21:43.947Z,53.60
2023-04-03T09:24:36.277Z,51.80
2023-04-03T09:27:24.154Z,49.90
2023-04-03T09:30:35.411Z,52.40
2023-04-03T09:33:28.196Z,50.50
2023-04-03T09:36:47.038Z,47.90
2023-04-03T09:40:12.337Z,44.30
2023-04-03T09:43:06.009Z,45.40
2023-04-03T09:45:56.735Z,46.60
2023-04-03T09:49:08.769Z,45.60
2023-04-03T09:52:27.414Z,45.80
2023-04-03T09:55:38.245Z,44.50
2023-04-03T09:58:50.560Z,47.50
2023-04-03T10:01:45.577Z,46.90
2023-04-03T10:04:43.241Z,45.90
2023-04-03T10:07:38.357Z,43.30
2023-04-03T10:10:27.079Z,45.70
2023-04-03T10:13:25.078Z,39.10
2023-04-03T10:16:54.935Z,41.20
2023-04-03T10:20:35.027Z,46.90
2023-04-03T10:23:29.565Z,46.50
2023-04-03T10:26:36.782Z,43.30
2023-04-03T10:29:42.142Z,43.00
2023-04-03T10:32:56.204Z,39.00
2023-04-03T10:36:21.013Z,37.30
2023-04-03T10:39:31.963Z,35.30
2023-04-03T10:42:57.317Z,33.90
2023-04-03T10:45:52.369Z,34.80
2023-04-03T10:49:10.841Z,36.80
2023-04-03T10:52:31.570Z,32.40
2023-04-03T10:55:49.896Z,31.10
2023-04-03T10:58:50.653Z,30.80
2023-04-03T11:01:42.720Z,32.40
2023-04-03T11:04:43.363Z,27.90
2023-04-03T11:07:41.178Z,29.60
2023-04-03T11:11:08.684Z,29.00
2023-04-03T11:14:04.246Z,27.60
2023-04-03T11:17:13.005Z,28.30
2023-04-03T11:20:19.202Z,30.90
2023-04-03T11:23:46.033Z,28.30
2023-04-03T11:26:45.596Z,25.20
2023-04-03T11:29:43.538Z,26.50
2023-04-03T11:32:52.642Z,24.50
2023-04-03T11:35:47.725Z,23.10
2023-04-03T11:38:48.224Z,21.90
2023-04-03T11:41:42.706Z,19.50
2023-04-03T11:44:49.442Z,20.90
2023-04-03T11:47:55.385Z,20.30
2023-04-03T11:50:49.711Z,19.80
2023-04-03T11:53:38.853Z,20.10
2023-04-03T11:56:29.462Z,20.80
2023-04-03T11:59:22.518Z,21.60
2023-04-03T12:02:53.713Z,21.60
2023-04-03T12:05:43.146Z,22.40
2023-04-03T12:08:35.900Z,22.80
2023-04-03T12:11:33.953Z,22.30
2023-04-03T12:14:27.041Z,20.70
2023-04-03T12:17:30.480Z,19.70
2023-04-03T12:20:55.793Z,16.80
2023-04-03T12:24:24.521Z,16.50
2023-04-03T12:27:42.410Z,17.70
2023-04-03T12:30:31.562Z,18.50
2023-04-03T12:33:29.787Z,17.90
2023-04-03T12:36:48.914Z,20.50
2023-04-03T12:40:14.111Z,17.80
2023-04-03T12:43:57.458Z,16.90
2023-04-03T12:46:48.754Z,17.60
2023-04-03T12:49:46.186Z,17.10
2023-04-03T12:52:39.234Z,18.10
2023-04-03T12:55:27.555Z,14.50
2023-04-03T12:58:27.413Z,16.70
2023-04-03T13:01:23.213Z,17.40
2023-04-03T13:04:15.302Z,15.80
2023-04-03T13:07:04.870Z,15.70
2023-04-03T13:10:10.148Z,13.30
2023-04-03T13:13:01.010Z,17.00
2023-04-03T13:15:52.616Z,17.00
2023-04-03T13:18:40.926Z,15.90
2023-04-03T13:21:35.081Z,14.50
2023-04-03T13:24:22.660Z,15.70
2023-04-03T13:27:13.786Z,13.60
2023-04-03T13:30:05.544Z,16.50
2023-04-03T13:32:55.001Z,13.60
2023-04-03T13:35:43.860Z,13.20
2023-04-03T13:38:35.136Z,14.90
2023-04-03T13:41:27.994Z,13.60
2023-04-03T13:44:27.852Z,16.60
2023-04-03T13:47:26.654Z,13.50
2023-04-03T13:50:24.140Z,12.70
2023-04-03T13:53:20.923Z,14.90
2023-04-03T13:56:17.522Z,15.00
2023-04-03T13:59:14.809Z,12.70
2023-04-03T14:02:06.464Z,13.00
2023-04-03T14:04:59.912Z,14.00
2023-04-03T14:07:48.393Z,14.20
2023-04-03T14:10:37.446Z,14.00
2023-04-03T14:13:26.203Z,14.80
2023-04-03T14:16:21.145Z,14.30
2023-04-03T14:19:18.354Z,14.40
2023-04-03T14:22:41.793Z,12.70
2023-04-03T14:25:34.045Z,14.70
2023-04-03T14:28:23.687Z,13.00
2023-04-03T14:31:13.804Z,11.00
2023-04-03T14:34:15.664Z,12.60
2023-04-03T14:37:09.452Z,13.00
2023-04-03T14:40:03.565Z,14.10
2023-04-03T14:42:51.902Z,13.10
2023-04-03T14:45:40.614Z,14.30
2023-04-03T14:48:34.744Z,14.30
2023-04-03T14:51:24.991Z,14.80
2023-04-03T14:54:18.277Z,12.30
2023-04-03T14:57:14.025Z,12.30
2023-04-03T15:00:03.666Z,12.10
2023-04-03T15:02:52.084Z,11.20
2023-04-03T15:05:40.165Z,11.90
2023-04-03T15:08:31.399Z,13.30
2023-04-03T15:11:22.534Z,12.90
2023-04-03T15:14:12.467Z,12.70
2023-04-03T15:17:00.749Z,13.30
2023-04-03T15:19:52.039Z,15.00
2023-04-03T15:22:39.895Z,14.30
2023-04-03T15:25:28.794Z,13.70
2023-04-03T15:28:46.849Z,14.80
2023-04-03T15:31:37.216Z,11.90
2023-04-03T15:34:25.179Z,14.50
2023-04-03T15:37:12.863Z,11.50
2023-04-03T15:40:02.580Z,13.30
2023-04-03T15:42:52.369Z,12.10
2023-04-03T15:45:44.616Z,14.00
2023-04-03T15:48:32.975Z,14.30
2023-04-03T15:51:20.692Z,15.90
2023-04-03T15:54:09.403Z,15.90
2023-04-03T15:56:58.070Z,15.10
2023-04-03T15:59:45.854Z,15.60
2023-04-03T16:02:34.556Z,15.50
2023-04-03T16:05:22.928Z,13.30
2023-04-03T16:08:13.981Z,14.10
2023-04-03T16:11:02.009Z,13.80
2023-04-03T16:13:49.523Z,13.30
2023-04-03T16:16:37.923Z,14.80
2023-04-03T16:19:26.399Z,15.70
2023-04-03T16:22:14.476Z,15.50
2023-04-03T16:25:10.911Z,14.80
2023-04-03T16:27:58.797Z,15.50
2023-04-03T16:30:48.406Z,14.50
2023-04-03T16:33:38.579Z,15.10
2023-04-03T16:36:27.080Z,18.30
2023-04-03T16:39:14.633Z,15.70
2023-04-03T16:42:02.610Z,16.00
2023-04-03T16:44:50.198Z,16.10
2023-04-03T16:47:38.331Z,18.60
2023-04-03T16:50:26.158Z,17.50
2023-04-03T16:53:14.016Z,17.80
2023-04-03T16:56:01.805Z,16.70
2023-04-03T16:58:49.477Z,17.40
2023-04-03T17:01:37.678Z,17.50
2023-04-03T17:04:25.535Z,18.80
2023-04-03T17:07:16.236Z,18.80
2023-04-03T17:10:07.494Z,18.70
2023-04-03T17:12:55.655Z,20.10
2023-04-03T17:15:43.431Z,19.30
2023-04-03T17:18:32.051Z,20.10
2023-04-03T17:21:20.666Z,21.20
2023-04-03T17:24:15.614Z,21.20
2023-04-03T17:27:04.330Z,22.10
2023-04-03T17:29:52.148Z,23.70
2023-04-03T17:32:39.897Z,23.60
2023-04-03T17:35:28.276Z,23.80
2023-04-03T17:38:19.168Z,23.30
2023-04-03T17:41:08.871Z,23.00
2023-04-03T17:43:57.269Z,24.10
2023-04-03T17:46:45.053Z,26.40
2023-04-03T17:49:33.746Z,27.50
2023-04-03T17:52:24.138Z,26.80
2023-04-03T17:55:13.614Z,27.90
2023-04-03T17:58:03.845Z,27.90
2023-04-03T18:00:51.812Z,28.90
2023-04-03T18:03:40.022Z,29.50
2023-04-03T18:06:32.256Z,30.10
2023-04-03T18:09:31.853Z,32.30
2023-04-03T18:12:19.928Z,31.30
2023-04-03T18:15:10.215Z,31.10
2023-04-03T18:17:58.201Z,32.00
2023-04-03T18:20:46.569Z,31.10
2023-04-03T18:23:36.702Z,31.90
2023-04-03T18:26:28.512Z,32.50
2023-04-03T18:29:19.420Z,31.20
2023-04-03T18:32:10.286Z,30.80
2023-04-03T18:34:59.951Z,29.80
2023-04-03T18:37:48.263Z,30.50
2023-04-03T18:40:43.676Z,31.00
2023-04-03T18:43:34.412Z,33.30
2023-04-03T18:46:24.737Z,33.10
2023-04-03T18:49:13.976Z,33.90
2023-04-03T18:52:01.816Z,35.30
2023-04-03T18:54:49.615Z,34.70
2023-04-03T18:57:37.383Z,35.30
2023-04-03T19:00:26.095Z,35.10
2023-04-03T19:03:14.194Z,36.30
2023-04-03T19:06:03.865Z,36.60
2023-04-03T19:08:51.841Z,38.00
2023-04-03T19:11:42.514Z,38.90
2023-04-03T19:14:32.631Z,39.00
2023-04-03T19:17:20.476Z,38.40
2023-04-03T19:20:10.068Z,41.00
2023-04-03T19:22:57.637Z,39.80
2023-04-03T19:25:45.362Z,41.30
2023-04-03T19:28:33.740Z,41.50
2023-04-03T19:31:22.347Z,42.50
2023-04-03T19:34:10.548Z,44.00
2023-04-03T19:36:58.653Z,43.70
2023-04-03T19:39:46.504Z,44.90
2023-04-03T19:42:36.694Z,44.70
2023-04-03T19:45:26.433Z,45.30
2023-04-03T19:48:14.216Z,49.90
2023-04-03T19:51:01.739Z,49.00
2023-04-03T19:53:49.259Z,48.50
2023-04-03T19:56:36.786Z,48.20
2023-04-03T19:59:24.692Z,49.50
2023-04-03T20:02:12.423Z,49.90
2023-04-03T20:05:00.062Z,50.90
2023-04-03T20:07:48.143Z,50.00
2023-04-03T20:10:40.206Z,51.30
2023-04-03T20:13:28.244Z,52.00
2023-04-03T20:16:15.788Z,52.90
2023-04-03T20:19:03.906Z,53.20
2023-04-03T20:21:51.741Z,56.40
2023-04-03T20:24:39.444Z,55.60
2023-04-03T20:27:26.920Z,57.60
2023-04-03T20:30:14.815Z,57.30
2023-04-03T20:33:08.118Z,58.20
2023-04-03T20:36:00.114Z,58.50
2023-04-03T20:38:54.438Z,60.50
2023-04-03T20:41:45.569Z,59.60
2023-04-03T20:44:39.723Z,59.70
2023-04-03T20:47:33.508Z,61.40
2023-04-03T20:50:34.176Z,63.40
2023-04-03T20:53:27.925Z,66.30
2023-04-03T20:56:19.619Z,66.40
2023-04-03T20:59:22.858Z,65.20
2023-04-03T21:02:15.641Z,66.00
2023-04-03T21:05:13.794Z,67.50
2023-04-03T21:08:44.941Z,68.30
2023-04-03T21:12:10.238Z,71.70
2023-04-03T21:15:35.783Z,73.50
2023-04-03T21:18:50.502Z,75.00
2023-04-03T21:21:48.259Z,77.30
2023-04-03T21:24:39.907Z,75.00
2023-04-03T21:27:32.813Z,76.10
2023-04-03T21:30:25.134Z,76.90
2023-04-03T21:33:14.652Z,76.60
2023-04-03T21:36:08.102Z,76.20
2023-04-03T21:42:04.128Z,78.00
2023-04-03T21:44:52.186Z,79.20
2023-04-03T21:47:40.086Z,82.00
2023-04-03T21:50:28.040Z,82.80
2023-04-03T21:53:16.935Z,83.80
2023-04-03T21:56:04.775Z,86.70
2023-04-03T21:58:52.355Z,85.90
2023-04-03T22:01:40.241Z,86.00
2023-04-03T22:04:28.383Z,88.00
2023-04-03T22:07:16.225Z,92.60
2023-04-03T22:10:05.056Z,92.10
2023-04-03T22:12:52.923Z,93.60
2023-04-03T22:15:43.681Z,95.40
2023-04-03T22:18:32.605Z,96.50
2023-04-03T22:21:21.049Z,97.10
2023-04-03T22:24:09.244Z,98.20
2023-04-03T22:26:56.807Z,99.30
2023-04-03T22:29:44.434Z,99.90
2023-04-03T22:32:34.294Z,99.90
2023-04-03T22:35:24.267Z,99.90
2023-04-03T22:38:14.983Z,99.90
2023-04-03T22:41:05.805Z,99.90
2023-04-03T22:43:53.311Z,99.90
2023-04-03T22:46:41.321Z,99.90
2023-04-03T22:49:29.026Z,99.90
2023-04-03T22:52:19.075Z,99.90
2023-04-03T22:55:18.645Z,99.90
2023-04-03T22:58:07.073Z,99.90
2023-04-03T23:01:08.044Z,99.90
2023-04-03T23:03:55.785Z,99.90
2023-04-03T23:06:43.627Z,99.90
2023-04-03T23:09:31.883Z,99.90
2023-04-03T23:12:19.461Z,99.90
2023-04-03T23:15:09.104Z,99.90
2023-04-03T23:17:56.778Z,99.90
2023-04-03T23:20:44.397Z,99.90
2023-04-03T23:23:32.073Z,99.90
2023-04-03T23:26:19.625Z,99.90
2023-04-03T23:29:07.960Z,99.90
2023-04-03T23:31:56.372Z,99.90
2023-04-03T23:34:46.318Z,99.90
2023-04-03T23:37:33.878Z,99.90
2023-04-03T23:40:21.449Z,99.90
2023-04-03T23:43:09.003Z,99.90
2023-04-03T23:45:56.616Z,99.90
2023-04-03T23:48:44.217Z,99.90
2023-04-03T23:51:31.807Z,99.90
2023-04-03T23:54:19.231Z,99.90
2023-04-03T23:57:06.945Z,99.90
2023-04-03T23:59:54.355Z,99.90
